createdAt,value
2018-05-02T00:00:37.406Z,1.00
2018-05-02T00:03:06.351Z,1.00
2018-05-02T00:05:38.114Z,1.00
2018-05-02T00:08:06.471Z,1.00
2018-05-02T00:13:09.271Z,1.00
2018-05-02T00:20:44.730Z,1.00
2018-05-02T00:23:16.555Z,1.00
2018-05-02T00:25:46.667Z,1.00
2018-05-02T00:28:23.606Z,1.00
2018-05-02T00:30:57.814Z,1.00
2018-05-02T00:33:26.666Z,1.00
2018-05-02T00:36:00.746Z,1.00
2018-05-02T00:38:40.346Z,1.00
2018-05-02T00:41:11.490Z,1.00
2018-05-02T00:43:39.543Z,1.00
2018-05-02T00:46:12.086Z,1.00
2018-05-02T00:48:51.926Z,1.00
2018-05-02T00:51:19.957Z,1.00
2018-05-02T00:53:49.837Z,1.00
2018-05-02T00:56:25.678Z,1.00
2018-05-02T00:58:55.658Z,1.00
2018-05-02T01:01:26.938Z,1.00
2018-05-02T01:03:56.292Z,1.00
2018-05-02T01:06:26.133Z,1.00
2018-05-02T01:09:00.717Z,1.00
2018-05-02T01:11:32.805Z,1.00
2018-05-02T01:14:06.786Z,1.00
2018-05-02T01:16:36.802Z,1.00
2018-05-02T01:19:04.830Z,1.00
2018-05-02T01:21:39.723Z,1.00
2018-05-02T01:24:09.742Z,1.00
2018-05-02T01:31:52.341Z,1.00
2018-05-02T01:34:22.485Z,1.00
2018-05-02T01:39:30.878Z,1.00
2018-05-02T01:42:00.054Z,1.00
2018-05-02T01:44:33.122Z,1.00
2018-05-02T01:47:03.030Z,1.00
2018-05-02T01:49:38.149Z,1.00
2018-05-02T01:52:17.810Z,1.00
2018-05-02T01:54:49.881Z,1.00
2018-05-02T01:57:18.006Z,99.90
2018-05-02T01:59:46.946Z,99.90
2018-05-02T02:02:15.915Z,99.90
2018-05-02T02:04:48.554Z,99.90
2018-05-02T02:07:16.662Z,99.90
2018-05-02T02:09:44.706Z,99.90
2018-05-02T02:12:14.678Z,99.90
2018-05-02T02:14:45.889Z,55.10
2018-05-02T02:17:14.894Z,52.30
2018-05-02T02:19:46.754Z,1.00
2018-05-02T02:22:18.818Z,1.00
2018-05-02T02:24:50.657Z,19.60
2018-05-02T02:27:25.762Z,99.90
2018-05-02T02:29:54.658Z,99.90
2018-05-02T02:32:23.710Z,99.90
2018-05-02T02:34:53.778Z,99.90
2018-05-02T02:37:23.940Z,99.90
2018-05-02T02:39:54.011Z,99.90
2018-05-02T02:42:27.515Z,99.90
2018-05-02T02:44:55.570Z,92.80
2018-05-02T02:47:24.602Z,30.00
2018-05-02T02:49:57.154Z,1.00
2018-05-02T02:52:30.961Z,1.00
2018-05-02T02:55:02.831Z,1.00
2018-05-02T02:57:35.406Z,1.00
2018-05-02T03:00:09.038Z,1.00
2018-05-02T03:02:42.486Z,1.00
2018-05-02T03:05:10.858Z,1.00
2018-05-02T03:07:39.698Z,1.00
2018-05-02T03:10:08.294Z,1.00
2018-05-02T03:12:39.702Z,1.00
2018-05-02T03:15:09.762Z,1.00
2018-05-02T03:17:40.931Z,1.00
2018-05-02T03:20:14.389Z,1.00
2018-05-02T03:22:43.230Z,1.00
2018-05-02T03:25:11.797Z,1.00
2018-05-02T03:27:40.725Z,1.00
2018-05-02T03:30:10.314Z,1.00
2018-05-02T03:32:46.569Z,99.90
2018-05-02T03:35:15.730Z,30.00
2018-05-02T03:37:48.289Z,99.90
2018-05-02T03:40:20.493Z,99.90
2018-05-02T03:42:49.285Z,1.00
2018-05-02T03:45:18.213Z,1.00
2018-05-02T03:47:56.413Z,1.50
2018-05-02T03:50:24.433Z,1.00
2018-05-02T03:52:52.483Z,1.00
2018-05-02T03:55:25.292Z,99.90
2018-05-02T03:57:56.973Z,99.90
2018-05-02T04:00:36.965Z,99.90
2018-05-02T04:09:02.705Z,99.90
2018-05-02T04:11:30.733Z,99.90
2018-05-02T04:14:03.749Z,99.90
2018-05-02T04:16:44.749Z,27.80
2018-05-02T04:19:15.446Z,1.00
2018-05-02T04:21:45.498Z,1.00
2018-05-02T04:24:15.485Z,1.00
2018-05-02T04:26:45.521Z,1.00
2018-05-02T04:29:18.390Z,99.90
2018-05-02T04:31:50.161Z,99.90
2018-05-02T04:34:19.173Z,1.00
2018-05-02T04:36:49.869Z,1.00
2018-05-02T04:39:18.865Z,1.00
2018-05-02T04:41:46.889Z,1.00
2018-05-02T04:44:15.821Z,1.00
2018-05-02T04:46:43.825Z,1.00
2018-05-02T04:49:12.628Z,1.00
2018-05-02T04:51:40.721Z,1.00
2018-05-02T04:54:14.865Z,1.00
2018-05-02T04:56:42.872Z,1.00
2018-05-02T04:59:14.084Z,1.00
2018-05-02T05:01:43.993Z,1.00
2018-05-02T05:04:11.988Z,1.00
2018-05-02T05:06:40.789Z,99.90
2018-05-02T05:09:12.796Z,99.90
2018-05-02T05:11:40.824Z,99.90
2018-05-02T05:14:08.840Z,99.90
2018-05-02T05:16:36.868Z,1.00
2018-05-02T05:19:13.473Z,99.90
2018-05-02T05:21:41.488Z,99.90
2018-05-02T05:24:10.288Z,1.00
2018-05-02T05:26:41.003Z,1.00
2018-05-02T05:29:09.008Z,1.00
2018-05-02T05:31:38.964Z,1.00
2018-05-02T05:34:06.984Z,1.00
2018-05-02T05:36:35.017Z,51.60
2018-05-02T05:39:03.017Z,99.90
2018-05-02T05:41:31.784Z,1.00
2018-05-02T05:44:01.776Z,1.00
2018-05-02T05:46:29.768Z,1.00
2018-05-02T05:48:58.740Z,1.00
2018-05-02T05:51:26.760Z,1.00
2018-05-02T05:53:54.798Z,1.00
2018-05-02T05:56:23.768Z,99.90
2018-05-02T05:58:51.797Z,99.90
2018-05-02T06:01:20.733Z,99.90
2018-05-02T06:03:48.760Z,34.00
2018-05-02T06:06:16.779Z,1.00
2018-05-02T06:08:45.772Z,99.90
2018-05-02T06:11:18.445Z,1.00
2018-05-02T06:13:46.470Z,88.50
2018-05-02T06:16:14.489Z,1.00
2018-05-02T06:18:42.524Z,99.90
2018-05-02T06:21:14.917Z,1.00
2018-05-02T06:23:46.689Z,1.00
2018-05-02T06:26:15.763Z,1.00
2018-05-02T06:28:43.697Z,1.00
2018-05-02T06:31:11.717Z,1.00
2018-05-02T06:33:39.864Z,99.90
2018-05-02T06:36:08.797Z,49.20
2018-05-02T06:38:36.837Z,99.90
2018-05-02T06:41:04.849Z,99.90
2018-05-02T06:43:33.636Z,1.00
2018-05-02T06:46:04.421Z,99.90
2018-05-02T06:48:34.173Z,1.00
2018-05-02T06:51:02.209Z,1.00
2018-05-02T06:53:31.208Z,1.00
2018-05-02T06:55:59.229Z,1.00
2018-05-02T06:58:27.245Z,99.90
2018-05-02T07:00:57.321Z,99.90
2018-05-02T07:03:25.280Z,1.00
2018-05-02T07:05:53.293Z,1.00
2018-05-02T07:08:21.387Z,1.00
2018-05-02T07:10:49.338Z,99.90
2018-05-02T07:13:17.354Z,1.00
2018-05-02T07:15:46.133Z,99.90
2018-05-02T07:18:15.892Z,99.90
2018-05-02T07:20:44.897Z,99.90
2018-05-02T07:23:12.913Z,1.00
2018-05-02T07:25:40.929Z,99.90
2018-05-02T07:28:09.922Z,1.00
2018-05-02T07:30:37.931Z,99.90
2018-05-02T07:33:10.365Z,99.90
2018-05-02T07:35:38.376Z,99.90
2018-05-02T07:38:06.409Z,99.90
2018-05-02T07:40:34.416Z,99.90
2018-05-02T07:43:03.193Z,99.90
2018-05-02T07:45:32.985Z,99.90
2018-05-02T07:48:00.993Z,99.90
2018-05-02T07:50:30.905Z,1.00
2018-05-02T07:52:59.664Z,1.00
2018-05-02T07:55:27.681Z,1.00
2018-05-02T07:57:59.381Z,99.90
2018-05-02T08:00:27.397Z,99.90
2018-05-02T08:02:55.408Z,99.90
2018-05-02T08:05:23.425Z,1.00
2018-05-02T08:07:56.879Z,99.90
2018-05-02T08:10:29.832Z,99.90
2018-05-02T08:12:57.768Z,99.90
2018-05-02T08:15:26.560Z,99.90
2018-05-02T08:17:56.336Z,1.00
2018-05-02T08:20:24.336Z,1.00
2018-05-02T08:22:53.116Z,99.90
2018-05-02T08:25:21.889Z,99.90
2018-05-02T08:27:49.908Z,99.90
2018-05-02T08:30:21.592Z,1.00
2018-05-02T08:32:49.635Z,1.00
2018-05-02T08:35:21.929Z,1.00
2018-05-02T08:37:53.748Z,1.00
2018-05-02T08:40:21.776Z,1.00
2018-05-02T08:43:05.125Z,1.00
2018-05-02T08:48:31.236Z,1.00
2018-05-02T08:51:00.155Z,1.00
2018-05-02T08:53:28.164Z,1.00
2018-05-02T08:56:04.648Z,1.00
2018-05-02T08:58:32.655Z,1.00
2018-05-02T09:01:18.376Z,1.00
2018-05-02T09:03:46.398Z,1.00
2018-05-02T09:06:14.396Z,99.90
2018-05-02T09:08:44.955Z,1.00
2018-05-02T09:11:17.928Z,1.00
2018-05-02T09:13:46.849Z,1.00
2018-05-02T09:16:14.860Z,99.90
2018-05-02T09:18:43.643Z,99.90
2018-05-02T09:21:11.676Z,99.90
2018-05-02T09:23:39.697Z,99.90
2018-05-02T09:26:09.424Z,99.90
2018-05-02T09:28:47.476Z,99.90
2018-05-02T09:31:19.520Z,99.90
2018-05-02T09:33:48.531Z,99.90
2018-05-02T09:36:22.404Z,99.90
2018-05-02T09:38:50.432Z,99.90
2018-05-02T09:41:20.349Z,99.90
2018-05-02T09:43:48.367Z,99.90
2018-05-02T09:46:23.291Z,99.90
2018-05-02T09:48:51.304Z,99.90
2018-05-02T09:51:21.308Z,99.90
2018-05-02T09:53:49.331Z,99.90
2018-05-02T09:56:18.236Z,99.90
2018-05-02T09:58:48.152Z,99.90
2018-05-02T10:01:18.096Z,99.90
2018-05-02T10:03:52.035Z,99.90
2018-05-02T10:06:39.835Z,99.90
2018-05-02T10:09:13.659Z,99.90
2018-05-02T10:11:41.671Z,99.90
2018-05-02T10:14:19.799Z,99.90
2018-05-02T10:16:54.623Z,99.90
2018-05-02T10:19:22.659Z,99.90
2018-05-02T10:21:55.396Z,99.90
2018-05-02T10:24:43.122Z,99.90
2018-05-02T10:27:15.775Z,99.90
2018-05-02T10:29:49.043Z,99.90
2018-05-02T10:32:17.959Z,99.90
2018-05-02T10:34:52.515Z,99.90
2018-05-02T10:37:21.435Z,99.90
2018-05-02T10:40:09.715Z,99.90
2018-05-02T10:43:01.460Z,99.90
2018-05-02T10:45:37.923Z,99.90
2018-05-02T10:48:19.824Z,99.90
2018-05-02T10:50:53.380Z,99.90
2018-05-02T10:53:23.059Z,99.90
2018-05-02T10:55:59.442Z,99.90
2018-05-02T10:58:32.723Z,99.90
2018-05-02T11:01:03.675Z,99.90
2018-05-02T11:03:42.079Z,99.90
2018-05-02T11:06:10.883Z,99.90
2018-05-02T11:08:58.455Z,99.90
2018-05-02T11:11:26.496Z,99.90
2018-05-02T11:13:57.855Z,99.90
2018-05-02T11:16:26.895Z,99.90
2018-05-02T11:18:54.907Z,99.90
2018-05-02T11:21:22.928Z,99.90
2018-05-02T11:23:54.375Z,99.90
2018-05-02T11:26:26.438Z,99.90
2018-05-02T11:28:55.427Z,99.90
2018-05-02T11:31:23.460Z,99.90
2018-05-02T11:33:55.987Z,99.90
2018-05-02T11:36:24.008Z,99.90
2018-05-02T11:38:56.727Z,99.90
2018-05-02T11:41:24.752Z,99.90
2018-05-02T11:43:52.775Z,99.90
2018-05-02T11:46:24.046Z,99.90
2018-05-02T11:48:59.567Z,1.00
2018-05-02T11:51:32.123Z,1.00
2018-05-02T11:54:06.519Z,1.00
2018-05-02T11:56:37.791Z,1.00
2018-05-02T11:59:10.068Z,1.00
2018-05-02T12:01:38.103Z,1.00
2018-05-02T12:04:09.787Z,99.90
2018-05-02T12:06:40.132Z,99.90
2018-05-02T12:09:10.862Z,99.90
2018-05-02T12:11:38.894Z,99.90
2018-05-02T12:14:10.583Z,99.90
2018-05-02T12:16:42.442Z,99.90
2018-05-02T12:19:10.471Z,99.90
2018-05-02T12:21:57.619Z,99.90
2018-05-02T12:24:25.602Z,1.00
2018-05-02T12:26:53.619Z,99.90
2018-05-02T12:29:23.535Z,99.90
2018-05-02T12:31:57.403Z,99.90
2018-05-02T12:34:28.618Z,99.90
2018-05-02T12:36:56.647Z,99.90
2018-05-02T12:39:29.375Z,99.90
2018-05-02T12:41:57.368Z,99.90
2018-05-02T12:44:27.050Z,99.90
2018-05-02T12:46:59.822Z,99.90
2018-05-02T12:49:28.739Z,99.90
2018-05-02T12:52:01.508Z,99.90
2018-05-02T12:54:29.534Z,99.90
2018-05-02T12:56:59.506Z,99.90
2018-05-02T12:59:31.167Z,99.90
2018-05-02T13:01:59.186Z,99.90
2018-05-02T13:04:31.687Z,99.90
2018-05-02T13:07:06.094Z,99.90
2018-05-02T13:09:36.119Z,99.90
2018-05-02T13:12:12.450Z,99.90
2018-05-02T13:14:45.527Z,99.90
2018-05-02T13:17:13.621Z,1.00
2018-05-02T13:19:41.642Z,99.90
2018-05-02T13:22:18.872Z,99.90
2018-05-02T13:24:46.911Z,99.90
2018-05-02T13:27:15.694Z,99.90
2018-05-02T13:29:50.678Z,99.90
2018-05-02T13:32:22.453Z,99.90
2018-05-02T13:34:52.500Z,99.90
2018-05-02T13:37:22.494Z,99.90
2018-05-02T13:40:10.954Z,99.90
2018-05-02T13:42:38.975Z,99.90
2018-05-02T13:45:07.002Z,99.90
2018-05-02T13:47:35.015Z,99.90
2018-05-02T13:50:03.031Z,99.90
2018-05-02T13:52:34.861Z,99.90
2018-05-02T13:55:02.886Z,99.90
2018-05-02T13:57:30.918Z,99.90
2018-05-02T13:59:58.942Z,99.90
2018-05-02T14:02:28.893Z,99.90
2018-05-02T14:05:07.487Z,99.90
2018-05-02T14:07:40.424Z,99.90
2018-05-02T14:10:12.254Z,99.90
2018-05-02T14:12:44.110Z,99.90
2018-05-02T14:15:15.962Z,99.90
2018-05-02T14:17:43.990Z,99.90
2018-05-02T14:20:18.102Z,99.90
2018-05-02T14:22:52.850Z,99.90
2018-05-02T14:25:21.886Z,99.90
2018-05-02T14:27:53.522Z,99.90
2018-05-02T14:30:23.442Z,99.90
2018-05-02T14:33:12.942Z,99.90
2018-05-02T14:35:51.602Z,99.90
2018-05-02T14:38:24.558Z,99.90
2018-05-02T14:40:54.109Z,99.90
2018-05-02T14:43:23.014Z,99.90
2018-05-02T14:45:56.798Z,99.90
2018-05-02T14:48:29.390Z,99.90
2018-05-02T14:51:00.590Z,99.90
2018-05-02T14:53:28.634Z,99.90
2018-05-02T14:56:02.582Z,99.90
2018-05-02T14:58:31.507Z,99.90
2018-05-02T15:01:24.116Z,99.90
2018-05-02T15:04:04.577Z,99.90
2018-05-02T15:06:35.889Z,99.90
2018-05-02T15:09:06.590Z,99.90
2018-05-02T15:11:35.525Z,99.90
2018-05-02T15:14:04.298Z,99.90
2018-05-02T15:16:34.082Z,99.90
2018-05-02T15:19:02.097Z,99.90
2018-05-02T15:21:35.134Z,99.90
2018-05-02T15:24:03.177Z,99.90
2018-05-02T15:26:31.185Z,99.90
2018-05-02T15:29:17.146Z,99.90
2018-05-02T15:34:52.189Z,99.90
2018-05-02T15:37:40.517Z,99.90
2018-05-02T15:40:19.838Z,99.90
2018-05-02T15:42:50.706Z,1.00
2018-05-02T15:45:18.717Z,1.00
2018-05-02T15:47:56.937Z,1.00
2018-05-02T15:50:24.958Z,1.00
2018-05-02T15:52:52.986Z,1.00
2018-05-02T15:55:24.921Z,1.00
2018-05-02T15:57:56.732Z,1.00
2018-05-02T16:00:24.690Z,1.00
2018-05-02T16:03:01.302Z,1.00
2018-05-02T16:05:35.370Z,1.00
2018-05-02T16:08:03.394Z,1.00
2018-05-02T16:10:32.337Z,1.00
2018-05-02T16:13:02.266Z,1.00
2018-05-02T16:15:30.277Z,1.00
2018-05-02T16:17:58.289Z,1.00
2018-05-02T16:20:27.086Z,1.00
2018-05-02T16:23:11.734Z,1.00
2018-05-02T16:25:51.997Z,1.00
2018-05-02T16:28:23.705Z,1.00
2018-05-02T16:30:55.898Z,1.00
2018-05-02T16:33:24.739Z,99.90
2018-05-02T16:36:14.513Z,99.90
2018-05-02T16:38:59.654Z,99.90
2018-05-02T16:41:48.110Z,99.90
2018-05-02T16:47:18.346Z,99.90
2018-05-02T16:49:56.181Z,1.00
2018-05-02T16:52:27.385Z,99.90
2018-05-02T16:54:55.393Z,1.00
2018-05-02T16:57:26.869Z,1.00
2018-05-02T17:05:43.217Z,1.00
2018-05-02T17:08:18.406Z,1.00
2018-05-02T17:10:59.853Z,1.00
2018-05-02T17:13:30.606Z,83.30
2018-05-02T17:16:08.526Z,97.70
2018-05-02T17:18:47.339Z,47.20
2018-05-02T17:21:19.341Z,99.90
2018-05-02T17:24:00.645Z,1.00
2018-05-02T17:26:40.457Z,1.00
2018-05-02T17:29:13.538Z,1.00
2018-05-02T17:31:43.593Z,99.90
2018-05-02T17:34:30.833Z,99.90
2018-05-02T17:36:59.797Z,99.90
2018-05-02T17:39:44.612Z,99.90
2018-05-02T17:42:14.553Z,99.90
2018-05-02T17:44:55.969Z,1.00
2018-05-02T17:47:27.313Z,1.00
2018-05-02T17:52:32.185Z,1.00
2018-05-02T17:55:00.193Z,1.00
2018-05-02T17:57:29.245Z,1.00
2018-05-02T17:59:57.284Z,1.00
2018-05-02T18:02:25.323Z,1.00
2018-05-02T18:04:53.325Z,99.90
2018-05-02T18:07:25.781Z,1.00
2018-05-02T18:09:54.733Z,99.90
2018-05-02T18:12:23.772Z,99.90
2018-05-02T18:14:51.849Z,26.80
2018-05-02T18:17:19.869Z,75.40
2018-05-02T18:19:49.812Z,1.00
2018-05-02T18:22:18.728Z,69.90
2018-05-02T18:24:59.508Z,1.00
2018-05-02T18:27:32.912Z,99.90
2018-05-02T18:30:01.881Z,99.90
2018-05-02T18:32:32.305Z,1.00
2018-05-02T18:35:02.832Z,1.00
2018-05-02T18:37:41.616Z,1.00
2018-05-02T18:40:09.685Z,1.00
2018-05-02T18:42:39.668Z,1.00
2018-05-02T18:45:08.520Z,99.90
2018-05-02T18:47:38.444Z,99.90
2018-05-02T18:50:06.460Z,99.90
2018-05-02T18:52:38.481Z,99.90
2018-05-02T18:55:06.508Z,1.00
2018-05-02T18:57:35.748Z,1.00
2018-05-02T19:00:04.753Z,1.00
2018-05-02T19:02:40.569Z,1.00
2018-05-02T19:05:15.260Z,1.00
2018-05-02T19:07:47.364Z,1.00
2018-05-02T19:10:16.352Z,1.00
2018-05-02T19:12:44.397Z,1.00
2018-05-02T19:15:12.428Z,1.00
2018-05-02T19:23:27.576Z,23.40
2018-05-02T19:28:52.844Z,1.00
2018-05-02T19:31:31.864Z,1.00
2018-05-02T19:34:03.208Z,59.40
2018-05-02T19:36:34.961Z,99.90
2018-05-02T19:39:03.160Z,1.00
2018-05-02T19:41:37.216Z,1.00
2018-05-02T19:44:06.874Z,99.90
2018-05-02T19:46:34.898Z,99.90
2018-05-02T19:49:02.920Z,93.90
2018-05-02T19:51:36.544Z,1.00
2018-05-02T19:54:04.565Z,99.90
2018-05-02T19:56:39.117Z,99.90
2018-05-02T19:59:08.032Z,1.00
2018-05-02T20:01:41.773Z,39.60
2018-05-02T20:04:12.817Z,99.90
2018-05-02T20:06:42.848Z,99.90
2018-05-02T20:09:16.609Z,1.00
2018-05-02T20:11:52.139Z,1.00
2018-05-02T20:14:22.060Z,1.00
2018-05-02T20:16:50.900Z,1.00
2018-05-02T20:19:27.543Z,1.00
2018-05-02T20:21:55.516Z,1.00
2018-05-02T20:24:23.532Z,99.90
2018-05-02T20:26:54.240Z,1.00
2018-05-02T20:29:26.992Z,1.00
2018-05-02T20:31:57.996Z,1.00
2018-05-02T20:34:30.432Z,1.00
2018-05-02T20:36:59.405Z,1.00
2018-05-02T20:39:27.420Z,99.90
2018-05-02T20:41:59.162Z,99.90
2018-05-02T20:44:27.176Z,99.90
2018-05-02T20:46:56.112Z,1.00
2018-05-02T20:49:25.144Z,1.00
2018-05-02T20:52:03.580Z,1.00
2018-05-02T20:54:31.595Z,1.00
2018-05-02T20:57:00.564Z,1.00
2018-05-02T20:59:35.228Z,99.90
2018-05-02T21:02:04.025Z,1.00
2018-05-02T21:04:33.852Z,1.00
2018-05-02T21:07:08.512Z,1.00
2018-05-02T21:09:37.528Z,1.00
2018-05-02T21:12:06.504Z,1.00
2018-05-02T21:14:41.708Z,99.90
2018-05-02T21:17:11.709Z,99.90
2018-05-02T21:19:39.716Z,99.90
2018-05-02T21:22:08.641Z,99.90
2018-05-02T21:24:36.652Z,1.00
2018-05-02T21:27:05.687Z,99.90
2018-05-02T21:29:39.245Z,1.00
2018-05-02T21:32:08.163Z,1.00
2018-05-02T21:34:37.165Z,1.00
2018-05-02T21:37:09.119Z,99.90
2018-05-02T21:39:37.143Z,99.90
2018-05-02T21:42:09.667Z,1.00
2018-05-02T21:44:39.693Z,26.60
2018-05-02T21:47:12.255Z,1.00
2018-05-02T21:49:46.400Z,1.00
2018-05-02T21:52:19.052Z,1.00
2018-05-02T21:54:48.047Z,1.00
2018-05-02T21:57:20.615Z,1.00
2018-05-02T21:59:53.168Z,1.00
2018-05-02T22:02:21.927Z,71.80
2018-05-02T22:04:49.955Z,80.10
2018-05-02T22:07:18.947Z,99.90
2018-05-02T22:09:51.724Z,1.00
2018-05-02T22:12:20.724Z,1.00
2018-05-02T22:14:48.747Z,32.40
2018-05-02T22:17:20.142Z,99.90
2018-05-02T22:19:49.131Z,99.90
2018-05-02T22:22:19.143Z,99.90
2018-05-02T22:24:58.971Z,1.00
2018-05-02T22:27:28.919Z,99.90
2018-05-02T22:29:57.899Z,1.00
2018-05-02T22:32:26.895Z,1.00
2018-05-02T22:34:54.923Z,1.00
2018-05-02T22:37:27.331Z,1.00
2018-05-02T22:40:05.839Z,1.00
2018-05-02T22:42:38.235Z,1.00
2018-05-02T22:45:12.863Z,1.00
2018-05-02T22:47:43.887Z,1.00
2018-05-02T22:50:11.945Z,7.80
2018-05-02T22:52:40.955Z,98.50
2018-05-02T22:55:13.151Z,99.90
2018-05-02T22:57:41.947Z,99.90
2018-05-02T23:00:09.975Z,99.90
2018-05-02T23:02:38.977Z,99.90
2018-05-02T23:05:07.011Z,99.90
2018-05-02T23:07:41.630Z,99.90
2018-05-02T23:10:15.338Z,99.90
2018-05-02T23:12:45.310Z,99.90
2018-05-02T23:15:18.059Z,1.00
2018-05-02T23:17:46.079Z,1.00
2018-05-02T23:20:18.618Z,1.00
2018-05-02T23:22:47.631Z,1.00
2018-05-02T23:25:19.867Z,1.00
2018-05-02T23:27:53.679Z,1.00
2018-05-02T23:30:23.698Z,1.00
2018-05-02T23:32:52.697Z,1.00
2018-05-02T23:35:20.714Z,1.00
2018-05-02T23:37:49.744Z,1.00
2018-05-02T23:40:17.758Z,1.00
2018-05-02T23:42:49.058Z,1.00
2018-05-02T23:45:23.558Z,1.00
2018-05-02T23:47:51.574Z,99.90
2018-05-02T23:50:22.291Z,1.00
2018-05-02T23:52:51.278Z,1.00
2018-05-02T23:55:19.323Z,63.50
2018-05-02T23:57:47.339Z,99.90
